Northsea Beta — 9HA2594 — position and weather

sailwx.info

Track history (hours):
 
Tides and Currents Weather Stations Pressure Air Temp Water Temp Dewpoint Dewpoint Depression Visibility Wind Speed Wind Dir Waves Ship Positions

Northsea Beta

Last reported at 2017-Mar-26 18:24 UTC. Time now 2017-Mar-26 18:52 UTC.
Position N 52°25' E 004°45'.

Length 110 m; draft 5.8 m.

Type: Tanker. MMSI: 248970000.

Date/timePositionNaut miles runAvg speedWind from/ knotsBaromVisibWave heightAir tempDewpointWater temp
2017-Mar-26 18:24N 52°25' E 004°45'0 0.0
2017-Mar-26 17:33N 52°25' E 004°45'0 0.0
2017-Mar-26 16:24N 52°25' E 004°45'0 0.0
2017-Mar-26 15:30N 52°25' E 004°45'0 0.0
2017-Mar-26 13:33N 52°25' E 004°45'0 0.0
2017-Mar-26 12:30N 52°25' E 004°45'0 0.0
2017-Mar-26 11:27N 52°25' E 004°45'0 0.0
2017-Mar-26 10:24N 52°25' E 004°45'0 0.0
2017-Mar-26 09:30N 52°25' E 004°45'0 0.0
2017-Mar-26 08:18N 52°25' E 004°45'0 0.0
2017-Mar-26 07:21N 52°25' E 004°45'0 0.0
2017-Mar-26 06:27N 52°25' E 004°45'0 0.0
2017-Mar-26 05:21N 52°25' E 004°45'0 0.0
2017-Mar-26 04:27N 52°25' E 004°45'0 0.0
2017-Mar-26 03:30N 52°25' E 004°45'0 0.0
2017-Mar-26 00:32N 52°25' E 004°45'0 0.0
2017-Mar-25 23:29N 52°25' E 004°45'0 0.0
2017-Mar-25 22:27N 52°25' E 004°45'5 5.8
2017-Mar-25 21:33N 52°28' E 004°38'4 3.7
2017-Mar-25 20:34N 52°28' E 004°32'7 7.4
2017-Mar-25 19:33N 52°31' E 004°21'1 0.6
2017-Mar-25 18:32N 52°31' E 004°20'0 0.0
2017-Mar-25 17:32N 52°31' E 004°20'0 0.0
2017-Mar-25 16:33N 52°31' E 004°20'0 0.1
2017-Mar-25 15:33N 52°32' E 004°20'0 0.0
2017-Mar-25 14:32N 52°32' E 004°20'0 0.0
2017-Mar-25 13:32N 52°32' E 004°20'0 0.1
2017-Mar-25 12:20N 52°31' E 004°20'0 0.0
2017-Mar-25 11:32N 52°31' E 004°20'0 0.0
2017-Mar-25 10:32N 52°31' E 004°20'0 0.0
2017-Mar-25 09:32N 52°31' E 004°20'0 0.0
2017-Mar-25 08:26N 52°31' E 004°20'0 0.0
2017-Mar-25 07:26N 52°31' E 004°20'0 0.0
2017-Mar-25 06:26N 52°31' E 004°20'0 0.0
2017-Mar-25 05:32N 52°31' E 004°20'0 0.1
2017-Mar-25 04:32N 52°32' E 004°20'0 0.0
2017-Mar-25 03:32N 52°32' E 004°20'0 0.0
2017-Mar-25 02:32N 52°32' E 004°20'0 0.0
2017-Mar-25 01:29N 52°32' E 004°20'0 0.0
2017-Mar-25 00:32N 52°32' E 004°20'0 0.1
2017-Mar-24 23:32N 52°31' E 004°20'0 0.0
2017-Mar-24 22:29N 52°31' E 004°20'0 0.0
2017-Mar-24 21:14N 52°31' E 004°20'0 0.0
2017-Mar-24 20:32N 52°31' E 004°20'0 0.0
2017-Mar-24 19:32N 52°31' E 004°20'0 0.0
2017-Mar-24 18:32N 52°31' E 004°20'0 0.0
2017-Mar-24 17:32N 52°31' E 004°20'0 0.0
2017-Mar-24 16:32N 52°31' E 004°20'0 0.1
2017-Mar-24 15:32N 52°32' E 004°20'0 0.0
2017-Mar-24 14:32N 52°32' E 004°20'0 0.0
2017-Mar-24 13:32N 52°32' E 004°20'0 0.0
2017-Mar-24 12:26N 52°32' E 004°20'0 0.0
2017-Mar-24 11:29N 52°32' E 004°20'0 0.1
2017-Mar-24 10:32N 52°31' E 004°20'0 0.0
2017-Mar-24 09:32N 52°31' E 004°20'0 0.0
2017-Mar-24 08:32N 52°31' E 004°20'0 0.0
2017-Mar-24 07:32N 52°31' E 004°20'0 0.0
2017-Mar-24 06:32N 52°31' E 004°20'0 0.0
2017-Mar-24 05:32N 52°31' E 004°20'0 0.0
2017-Mar-24 04:29N 52°31' E 004°20'0 0.1
2017-Mar-24 03:29N 52°32' E 004°20'0 0.1
2017-Mar-24 02:29N 52°32' E 004°20'0 0.0
2017-Mar-24 01:32N 52°32' E 004°20'0 0.0
2017-Mar-24 00:32N 52°32' E 004°20'0 0.0
2017-Mar-23 23:32N 52°32' E 004°20'0 0.1
2017-Mar-23 22:29N 52°31' E 004°20'0 0.0
2017-Mar-23 21:17N 52°31' E 004°20'0 0.0
2017-Mar-23 20:26N 52°31' E 004°20'0 0.0
2017-Mar-23 19:29N 52°31' E 004°20'0 0.0
2017-Mar-23 18:32N 52°31' E 004°20'0 0.0
2017-Mar-23 17:32N 52°31' E 004°20'0 0.0
2017-Mar-23 16:32N 52°31' E 004°20'0 0.0
2017-Mar-23 15:32N 52°31' E 004°20'0 0.1
2017-Mar-23 14:29N 52°32' E 004°20'0 0.1
2017-Mar-23 13:32N 52°32' E 004°20'0 0.0
2017-Mar-23 12:32N 52°32' E 004°20'0 0.0
2017-Mar-23 11:32N 52°32' E 004°20'0 0.0
2017-Mar-23 10:32N 52°32' E 004°20'4 4.3
2017-Mar-23 09:33N 52°29' E 004°26'2 2.1
2017-Mar-23 08:33N 52°29' E 004°23'10 9.6
2017-Mar-23 07:33N 52°28' E 004°07'6 5.7
2017-Mar-23 06:28N 52°26' E 003°57'0 0.0
2017-Mar-23 05:28N 52°26' E 003°58'0 0.0
2017-Mar-23 04:31N 52°26' E 003°58'0 0.0
2017-Mar-22 18:28N 52°26' E 003°58'85 9.5
2017-Mar-22 09:33N 51°31' E 002°14'1211.7
2017-Mar-22 08:34N 51°22' E 002°01'10 9.8
2017-Mar-22 07:33N 51°25' E 001°46'9 9.2
2017-Mar-22 06:33N 51°25' E 001°31'4 3.6
2017-Mar-22 05:33N 51°25' E 001°25'0 0.0
2017-Mar-22 04:33N 51°25' E 001°25'0 0.0
2017-Mar-22 03:33N 51°25' E 001°25'0 0.0
2017-Mar-22 02:33N 51°25' E 001°25'0 0.0
2017-Mar-22 01:33N 51°25' E 001°25'0 0.0
2017-Mar-22 00:33N 51°25' E 001°26'0 0.0
2017-Mar-21 23:33N 51°25' E 001°26'0 0.0
2017-Mar-21 22:33N 51°25' E 001°26'0 0.0
2017-Mar-21 21:33N 51°25' E 001°26'0 0.0
2017-Mar-21 20:33N 51°25' E 001°26'0 0.0
2017-Mar-21 19:33N 51°25' E 001°26'0 0.0
2017-Mar-21 18:33N 51°25' E 001°26'0 0.1
2017-Mar-21 17:33N 51°25' E 001°26'0 0.1
2017-Mar-21 16:33N 51°25' E 001°25'0 0.0
2017-Mar-21 15:33N 51°25' E 001°25'0 0.1
2017-Mar-21 14:33N 51°25' E 001°26'0 0.1
2017-Mar-21 13:33N 51°25' E 001°26'0 0.0
2017-Mar-21 12:33N 51°25' E 001°26'0 0.0
2017-Mar-21 11:33N 51°25' E 001°26'0 0.0
2017-Mar-21 10:33N 51°25' E 001°26'0 0.0
2017-Mar-21 09:33N 51°25' E 001°26'0 0.0
2017-Mar-21 08:33N 51°25' E 001°26'0 0.0
2017-Mar-21 07:34N 51°25' E 001°26'0 0.0
2017-Mar-21 06:33N 51°25' E 001°26'0 0.0
2017-Mar-21 05:33N 51°25' E 001°26'0 0.2
2017-Mar-21 04:33N 51°25' E 001°25'0 0.0
2017-Mar-21 03:33N 51°25' E 001°25'0 0.0
2017-Mar-21 02:32N 51°25' E 001°25'0 0.1
2017-Mar-21 01:33N 51°25' E 001°26'0 0.0
2017-Mar-21 00:34N 51°25' E 001°26'0 0.0
2017-Mar-20 23:34N 51°25' E 001°26'0 0.0
2017-Mar-20 22:33N 51°25' E 001°26'0 0.0
2017-Mar-20 21:31N 51°25' E 001°26'0 0.0
2017-Mar-20 20:34N 51°25' E 001°26'0 0.0
2017-Mar-20 19:33N 51°25' E 001°26'0 0.0
2017-Mar-20 18:33N 51°25' E 001°26'0 0.0
2017-Mar-20 17:33N 51°25' E 001°26'0 0.0
2017-Mar-20 16:33N 51°25' E 001°26'0 0.1
2017-Mar-20 15:33N 51°25' E 001°25'0 0.0
2017-Mar-20 14:34N 51°25' E 001°25'0 0.1
2017-Mar-20 13:34N 51°25' E 001°26'0 0.0
2017-Mar-20 12:34N 51°25' E 001°26'0 0.0
2017-Mar-20 11:34N 51°25' E 001°26'0 0.0
2017-Mar-20 10:33N 51°25' E 001°26'0 0.0
2017-Mar-20 09:33N 51°25' E 001°26'0 0.0
2017-Mar-20 08:33N 51°25' E 001°26'0 0.0
2017-Mar-20 07:34N 51°25' E 001°26'0 0.0
2017-Mar-20 06:33N 51°25' E 001°26'0 0.3
2017-Mar-20 05:33N 51°25' E 001°26'13 6.4
2017-Mar-20 03:32N 51°29' E 001°07'10 9.7
2017-Mar-20 02:32N 51°29' E 000°51'9 9.8
2017-Mar-20 01:33N 51°30' E 000°36'9 8.8
2017-Mar-20 00:34N 51°27' E 000°23'4 4.0
2017-Mar-19 23:34N 51°28' E 000°16'0 0.0
2017-Mar-19 22:34N 51°28' E 000°16'0 0.0
2017-Mar-19 21:34N 51°28' E 000°16'0 0.0
2017-Mar-19 20:34N 51°28' E 000°16'0 0.0
2017-Mar-19 19:34N 51°28' E 000°16'0 0.0
2017-Mar-19 18:33N 51°28' E 000°16'0 0.0
2017-Mar-19 17:34N 51°28' E 000°16'0 0.0
2017-Mar-19 16:34N 51°28' E 000°16'0 0.0
2017-Mar-19 15:34N 51°28' E 000°16'0 0.0
2017-Mar-19 14:34N 51°28' E 000°16'0 0.0
2017-Mar-19 13:33N 51°28' E 000°16'0 0.0
2017-Mar-19 12:34N 51°28' E 000°16'0 0.0
2017-Mar-19 11:34N 51°28' E 000°16'0 0.0
2017-Mar-19 10:33N 51°28' E 000°16'0 0.0
2017-Mar-19 09:34N 51°28' E 000°16'0 0.0
2017-Mar-19 08:34N 51°28' E 000°16'0 0.0
2017-Mar-19 07:33N 51°28' E 000°16'0 0.0
2017-Mar-19 06:34N 51°28' E 000°16'0 0.0
2017-Mar-19 05:33N 51°28' E 000°16'0 0.0
2017-Mar-19 04:34N 51°28' E 000°16'0 0.0
2017-Mar-19 03:34N 51°28' E 000°16'0 0.0
2017-Mar-19 02:34N 51°28' E 000°16'0 0.0
2017-Mar-19 01:34N 51°28' E 000°16'0 0.0
2017-Mar-19 00:34N 51°28' E 000°16'0 0.0
2017-Mar-18 23:34N 51°28' E 000°16'0 0.0
2017-Mar-18 22:34N 51°28' E 000°16'0 0.0
2017-Mar-18 21:34N 51°28' E 000°16'0 0.0
2017-Mar-18 20:33N 51°28' E 000°16'0 0.0
2017-Mar-18 19:34N 51°28' E 000°16'1 0.9
2017-Mar-18 18:33N 51°28' E 000°18'6 6.0
2017-Mar-18 17:33N 51°29' E 000°27'9 8.6
2017-Mar-18 16:33N 51°30' E 000°41'1010.2
2017-Mar-18 15:33N 51°29' E 000°57'1211.1
2017-Mar-18 14:30N 51°29' E 001°16'1010.3
2017-Mar-18 13:33N 51°26' E 001°31'7 6.3
2017-Mar-18 12:31N 51°33' E 001°31'0 0.0
2017-Mar-18 11:31N 51°33' E 001°31'0 0.1
2017-Mar-18 10:31N 51°33' E 001°31'0 0.1
2017-Mar-18 09:31N 51°33' E 001°32'0 0.0
2017-Mar-18 08:31N 51°33' E 001°32'0 0.0
2017-Mar-18 07:31N 51°33' E 001°32'0 0.0
2017-Mar-18 06:31N 51°33' E 001°32'0 0.0
2017-Mar-18 05:31N 51°33' E 001°32'0 0.0
2017-Mar-18 04:31N 51°33' E 001°32'0 0.1
2017-Mar-18 03:19N 51°33' E 001°31'0 0.1
2017-Mar-18 02:31N 51°33' E 001°31'0 0.0
2017-Mar-18 01:28N 51°33' E 001°31'0 0.0
2017-Mar-18 00:28N 51°33' E 001°31'0 0.0
2017-Mar-17 23:31N 51°33' E 001°31'0 0.2
2017-Mar-17 22:31N 51°33' E 001°32'0 0.1
2017-Mar-17 21:31N 51°33' E 001°32'0 0.0
2017-Mar-17 20:31N 51°33' E 001°32'0 0.0
2017-Mar-17 19:31N 51°33' E 001°32'0 0.0
2017-Mar-17 18:31N 51°33' E 001°32'0 0.0
2017-Mar-17 17:31N 51°33' E 001°32'0 0.0
2017-Mar-17 16:31N 51°33' E 001°32'0 0.0
2017-Mar-17 15:28N 51°33' E 001°31'0 0.1
2017-Mar-17 14:31N 51°33' E 001°31'0 0.0
2017-Mar-17 13:19N 51°33' E 001°31'0 0.0
2017-Mar-17 12:31N 51°33' E 001°31'0 0.0
2017-Mar-17 11:25N 51°33' E 001°31'2 1.8
2017-Mar-17 10:33N 51°32' E 001°33'10 9.7
2017-Mar-17 09:33N 51°39' E 001°44'1111.3
2017-Mar-17 08:34N 51°50' E 001°43'10 9.8
2017-Mar-17 07:33N 51°59' E 001°47'9 8.7
2017-Mar-17 06:34N 52°07' E 001°53'  
Track history (hours):
 
Tides and Currents Weather Stations Pressure Air Temp Water Temp Dewpoint Dewpoint Depression Visibility Wind Speed Wind Dir Waves Ship Positions

Northsea Beta

Last reported at 2017-Mar-26 18:24 UTC. Time now 2017-Mar-26 18:52 UTC.
Position N 52°25' E 004°45'.

Length 110 m; draft 5.8 m.

Type: Tanker. MMSI: 248970000.

Date/timePositionNaut miles runAvg speedWind from/ knotsBaromVisibWave heightAir tempDewpointWater temp
2017-Mar-26 18:24N 52°25' E 004°45'0 0.0
2017-Mar-26 17:33N 52°25' E 004°45'0 0.0
2017-Mar-26 16:24N 52°25' E 004°45'0 0.0
2017-Mar-26 15:30N 52°25' E 004°45'0 0.0
2017-Mar-26 13:33N 52°25' E 004°45'0 0.0
2017-Mar-26 12:30N 52°25' E 004°45'0 0.0
2017-Mar-26 11:27N 52°25' E 004°45'0 0.0
2017-Mar-26 10:24N 52°25' E 004°45'0 0.0
2017-Mar-26 09:30N 52°25' E 004°45'0 0.0
2017-Mar-26 08:18N 52°25' E 004°45'0 0.0
2017-Mar-26 07:21N 52°25' E 004°45'0 0.0
2017-Mar-26 06:27N 52°25' E 004°45'0 0.0
2017-Mar-26 05:21N 52°25' E 004°45'0 0.0
2017-Mar-26 04:27N 52°25' E 004°45'0 0.0
2017-Mar-26 03:30N 52°25' E 004°45'0 0.0
2017-Mar-26 00:32N 52°25' E 004°45'0 0.0
2017-Mar-25 23:29N 52°25' E 004°45'0 0.0
2017-Mar-25 22:27N 52°25' E 004°45'5 5.8
2017-Mar-25 21:33N 52°28' E 004°38'4 3.7
2017-Mar-25 20:34N 52°28' E 004°32'7 7.4
2017-Mar-25 19:33N 52°31' E 004°21'1 0.6
2017-Mar-25 18:32N 52°31' E 004°20'0 0.0
2017-Mar-25 17:32N 52°31' E 004°20'0 0.0
2017-Mar-25 16:33N 52°31' E 004°20'0 0.1
2017-Mar-25 15:33N 52°32' E 004°20'0 0.0
2017-Mar-25 14:32N 52°32' E 004°20'0 0.0
2017-Mar-25 13:32N 52°32' E 004°20'0 0.1
2017-Mar-25 12:20N 52°31' E 004°20'0 0.0
2017-Mar-25 11:32N 52°31' E 004°20'0 0.0
2017-Mar-25 10:32N 52°31' E 004°20'0 0.0
2017-Mar-25 09:32N 52°31' E 004°20'0 0.0
2017-Mar-25 08:26N 52°31' E 004°20'0 0.0
2017-Mar-25 07:26N 52°31' E 004°20'0 0.0
2017-Mar-25 06:26N 52°31' E 004°20'0 0.0
2017-Mar-25 05:32N 52°31' E 004°20'0 0.1
2017-Mar-25 04:32N 52°32' E 004°20'0 0.0
2017-Mar-25 03:32N 52°32' E 004°20'0 0.0
2017-Mar-25 02:32N 52°32' E 004°20'0 0.0
2017-Mar-25 01:29N 52°32' E 004°20'0 0.0
2017-Mar-25 00:32N 52°32' E 004°20'0 0.1
2017-Mar-24 23:32N 52°31' E 004°20'0 0.0
2017-Mar-24 22:29N 52°31' E 004°20'0 0.0
2017-Mar-24 21:14N 52°31' E 004°20'0 0.0
2017-Mar-24 20:32N 52°31' E 004°20'0 0.0
2017-Mar-24 19:32N 52°31' E 004°20'0 0.0
2017-Mar-24 18:32N 52°31' E 004°20'0 0.0
2017-Mar-24 17:32N 52°31' E 004°20'0 0.0
2017-Mar-24 16:32N 52°31' E 004°20'0 0.1
2017-Mar-24 15:32N 52°32' E 004°20'0 0.0
2017-Mar-24 14:32N 52°32' E 004°20'0 0.0
2017-Mar-24 13:32N 52°32' E 004°20'0 0.0
2017-Mar-24 12:26N 52°32' E 004°20'0 0.0
2017-Mar-24 11:29N 52°32' E 004°20'0 0.1
2017-Mar-24 10:32N 52°31' E 004°20'0 0.0
2017-Mar-24 09:32N 52°31' E 004°20'0 0.0
2017-Mar-24 08:32N 52°31' E 004°20'0 0.0
2017-Mar-24 07:32N 52°31' E 004°20'0 0.0
2017-Mar-24 06:32N 52°31' E 004°20'0 0.0
2017-Mar-24 05:32N 52°31' E 004°20'0 0.0
2017-Mar-24 04:29N 52°31' E 004°20'0 0.1
2017-Mar-24 03:29N 52°32' E 004°20'0 0.1
2017-Mar-24 02:29N 52°32' E 004°20'0 0.0
2017-Mar-24 01:32N 52°32' E 004°20'0 0.0
2017-Mar-24 00:32N 52°32' E 004°20'0 0.0
2017-Mar-23 23:32N 52°32' E 004°20'0 0.1
2017-Mar-23 22:29N 52°31' E 004°20'0 0.0
2017-Mar-23 21:17N 52°31' E 004°20'0 0.0
2017-Mar-23 20:26N 52°31' E 004°20'0 0.0
2017-Mar-23 19:29N 52°31' E 004°20'0 0.0
2017-Mar-23 18:32N 52°31' E 004°20'0 0.0
2017-Mar-23 17:32N 52°31' E 004°20'0 0.0
2017-Mar-23 16:32N 52°31' E 004°20'0 0.0
2017-Mar-23 15:32N 52°31' E 004°20'0 0.1
2017-Mar-23 14:29N 52°32' E 004°20'0 0.1
2017-Mar-23 13:32N 52°32' E 004°20'0 0.0
2017-Mar-23 12:32N 52°32' E 004°20'0 0.0
2017-Mar-23 11:32N 52°32' E 004°20'0 0.0
2017-Mar-23 10:32N 52°32' E 004°20'4 4.3
2017-Mar-23 09:33N 52°29' E 004°26'2 2.1
2017-Mar-23 08:33N 52°29' E 004°23'10 9.6
2017-Mar-23 07:33N 52°28' E 004°07'6 5.7
2017-Mar-23 06:28N 52°26' E 003°57'0 0.0
2017-Mar-23 05:28N 52°26' E 003°58'0 0.0
2017-Mar-23 04:31N 52°26' E 003°58'0 0.0
2017-Mar-22 18:28N 52°26' E 003°58'85 9.5
2017-Mar-22 09:33N 51°31' E 002°14'1211.7
2017-Mar-22 08:34N 51°22' E 002°01'10 9.8
2017-Mar-22 07:33N 51°25' E 001°46'9 9.2
2017-Mar-22 06:33N 51°25' E 001°31'4 3.6
2017-Mar-22 05:33N 51°25' E 001°25'0 0.0
2017-Mar-22 04:33N 51°25' E 001°25'0 0.0
2017-Mar-22 03:33N 51°25' E 001°25'0 0.0
2017-Mar-22 02:33N 51°25' E 001°25'0 0.0
2017-Mar-22 01:33N 51°25' E 001°25'0 0.0
2017-Mar-22 00:33N 51°25' E 001°26'0 0.0
2017-Mar-21 23:33N 51°25' E 001°26'0 0.0
2017-Mar-21 22:33N 51°25' E 001°26'0 0.0
2017-Mar-21 21:33N 51°25' E 001°26'0 0.0
2017-Mar-21 20:33N 51°25' E 001°26'0 0.0
2017-Mar-21 19:33N 51°25' E 001°26'0 0.0
2017-Mar-21 18:33N 51°25' E 001°26'0 0.1
2017-Mar-21 17:33N 51°25' E 001°26'0 0.1
2017-Mar-21 16:33N 51°25' E 001°25'0 0.0
2017-Mar-21 15:33N 51°25' E 001°25'0 0.1
2017-Mar-21 14:33N 51°25' E 001°26'0 0.1
2017-Mar-21 13:33N 51°25' E 001°26'0 0.0
2017-Mar-21 12:33N 51°25' E 001°26'0 0.0
2017-Mar-21 11:33N 51°25' E 001°26'0 0.0
2017-Mar-21 10:33N 51°25' E 001°26'0 0.0
2017-Mar-21 09:33N 51°25' E 001°26'0 0.0
2017-Mar-21 08:33N 51°25' E 001°26'0 0.0
2017-Mar-21 07:34N 51°25' E 001°26'0 0.0
2017-Mar-21 06:33N 51°25' E 001°26'0 0.0
2017-Mar-21 05:33N 51°25' E 001°26'0 0.2
2017-Mar-21 04:33N 51°25' E 001°25'0 0.0
2017-Mar-21 03:33N 51°25' E 001°25'0 0.0
2017-Mar-21 02:32N 51°25' E 001°25'0 0.1
2017-Mar-21 01:33N 51°25' E 001°26'0 0.0
2017-Mar-21 00:34N 51°25' E 001°26'0 0.0
2017-Mar-20 23:34N 51°25' E 001°26'0 0.0
2017-Mar-20 22:33N 51°25' E 001°26'0 0.0
2017-Mar-20 21:31N 51°25' E 001°26'0 0.0
2017-Mar-20 20:34N 51°25' E 001°26'0 0.0
2017-Mar-20 19:33N 51°25' E 001°26'0 0.0
2017-Mar-20 18:33N 51°25' E 001°26'0 0.0
2017-Mar-20 17:33N 51°25' E 001°26'0 0.0
2017-Mar-20 16:33N 51°25' E 001°26'0 0.1
2017-Mar-20 15:33N 51°25' E 001°25'0 0.0
2017-Mar-20 14:34N 51°25' E 001°25'0 0.1
2017-Mar-20 13:34N 51°25' E 001°26'0 0.0
2017-Mar-20 12:34N 51°25' E 001°26'0 0.0
2017-Mar-20 11:34N 51°25' E 001°26'0 0.0
2017-Mar-20 10:33N 51°25' E 001°26'0 0.0
2017-Mar-20 09:33N 51°25' E 001°26'0 0.0
2017-Mar-20 08:33N 51°25' E 001°26'0 0.0
2017-Mar-20 07:34N 51°25' E 001°26'0 0.0
2017-Mar-20 06:33N 51°25' E 001°26'0 0.3
2017-Mar-20 05:33N 51°25' E 001°26'13 6.4
2017-Mar-20 03:32N 51°29' E 001°07'10 9.7
2017-Mar-20 02:32N 51°29' E 000°51'9 9.8
2017-Mar-20 01:33N 51°30' E 000°36'9 8.8
2017-Mar-20 00:34N 51°27' E 000°23'4 4.0
2017-Mar-19 23:34N 51°28' E 000°16'0 0.0
2017-Mar-19 22:34N 51°28' E 000°16'0 0.0
2017-Mar-19 21:34N 51°28' E 000°16'0 0.0
2017-Mar-19 20:34N 51°28' E 000°16'0 0.0
2017-Mar-19 19:34N 51°28' E 000°16'0 0.0
2017-Mar-19 18:33N 51°28' E 000°16'0 0.0
2017-Mar-19 17:34N 51°28' E 000°16'0 0.0
2017-Mar-19 16:34N 51°28' E 000°16'0 0.0
2017-Mar-19 15:34N 51°28' E 000°16'0 0.0
2017-Mar-19 14:34N 51°28' E 000°16'0 0.0
2017-Mar-19 13:33N 51°28' E 000°16'0 0.0
2017-Mar-19 12:34N 51°28' E 000°16'0 0.0
2017-Mar-19 11:34N 51°28' E 000°16'0 0.0
2017-Mar-19 10:33N 51°28' E 000°16'0 0.0
2017-Mar-19 09:34N 51°28' E 000°16'0 0.0
2017-Mar-19 08:34N 51°28' E 000°16'0 0.0
2017-Mar-19 07:33N 51°28' E 000°16'0 0.0
2017-Mar-19 06:34N 51°28' E 000°16'0 0.0
2017-Mar-19 05:33N 51°28' E 000°16'0 0.0
2017-Mar-19 04:34N 51°28' E 000°16'0 0.0
2017-Mar-19 03:34N 51°28' E 000°16'0 0.0
2017-Mar-19 02:34N 51°28' E 000°16'0 0.0
2017-Mar-19 01:34N 51°28' E 000°16'0 0.0
2017-Mar-19 00:34N 51°28' E 000°16'0 0.0
2017-Mar-18 23:34N 51°28' E 000°16'0 0.0
2017-Mar-18 22:34N 51°28' E 000°16'0 0.0
2017-Mar-18 21:34N 51°28' E 000°16'0 0.0
2017-Mar-18 20:33N 51°28' E 000°16'0 0.0
2017-Mar-18 19:34N 51°28' E 000°16'1 0.9
2017-Mar-18 18:33N 51°28' E 000°18'6 6.0
2017-Mar-18 17:33N 51°29' E 000°27'9 8.6
2017-Mar-18 16:33N 51°30' E 000°41'1010.2
2017-Mar-18 15:33N 51°29' E 000°57'1211.1
2017-Mar-18 14:30N 51°29' E 001°16'1010.3
2017-Mar-18 13:33N 51°26' E 001°31'7 6.3
2017-Mar-18 12:31N 51°33' E 001°31'0 0.0
2017-Mar-18 11:31N 51°33' E 001°31'0 0.1
2017-Mar-18 10:31N 51°33' E 001°31'0 0.1
2017-Mar-18 09:31N 51°33' E 001°32'0 0.0
2017-Mar-18 08:31N 51°33' E 001°32'0 0.0
2017-Mar-18 07:31N 51°33' E 001°32'0 0.0
2017-Mar-18 06:31N 51°33' E 001°32'0 0.0
2017-Mar-18 05:31N 51°33' E 001°32'0 0.0
2017-Mar-18 04:31N 51°33' E 001°32'0 0.1
2017-Mar-18 03:19N 51°33' E 001°31'0 0.1
2017-Mar-18 02:31N 51°33' E 001°31'0 0.0
2017-Mar-18 01:28N 51°33' E 001°31'0 0.0
2017-Mar-18 00:28N 51°33' E 001°31'0 0.0
2017-Mar-17 23:31N 51°33' E 001°31'0 0.2
2017-Mar-17 22:31N 51°33' E 001°32'0 0.1
2017-Mar-17 21:31N 51°33' E 001°32'0 0.0
2017-Mar-17 20:31N 51°33' E 001°32'0 0.0
2017-Mar-17 19:31N 51°33' E 001°32'0 0.0
2017-Mar-17 18:31N 51°33' E 001°32'0 0.0
2017-Mar-17 17:31N 51°33' E 001°32'0 0.0
2017-Mar-17 16:31N 51°33' E 001°32'0 0.0
2017-Mar-17 15:28N 51°33' E 001°31'0 0.1
2017-Mar-17 14:31N 51°33' E 001°31'0 0.0
2017-Mar-17 13:19N 51°33' E 001°31'0 0.0
2017-Mar-17 12:31N 51°33' E 001°31'0 0.0
2017-Mar-17 11:25N 51°33' E 001°31'2 1.8
2017-Mar-17 10:33N 51°32' E 001°33'10 9.7
2017-Mar-17 09:33N 51°39' E 001°44'1111.3
2017-Mar-17 08:34N 51°50' E 001°43'10 9.8
2017-Mar-17 07:33N 51°59' E 001°47'9 8.7
2017-Mar-17 06:34N 52°07' E 001°53'  

Dump ship's entire track history